Shacklefords, Virginia
Current Conditions -  °F | °C
As of 10:35 AM on Thursday 23 Oct 2014 (Local Time) from KFYJ Reporting Station
Scattered Clouds Scattered Clouds  
Wind Chill: 60°   Ceiling: Unl
Heat Index: 60°   Visibility: 10mi
Dew Point: 43°   Wind: 12mph
Humidity: 53%   Direction: 310°NW
Pressure: 29.91"   Gusts: 25mph
Location:  37.55°N, 76.73°W
Report Text: KFYJ 231435Z AUTO 31010G22KT 10SM SCT044 16/06 A2991 RMK AO2 T01570060
Loading
Personal Weather Stations






























Interactive Weather Map
Tropical Storm Tracking
New forecast layout! Learn more

10-Day Weather Forecast

Advertisements
Track Severe Weather on mobile